AAL1120 KOKC-KABQ
Flight info
| Callsign | AAL1120 |
|---|---|
| Flight time | 1h 24m |
| Altitude | 30000 |
| Route | OLGUY3 YOUSE KIIDD COLTR4 |
| Aircraft | B738/M-SDE2E3FGHIRWXY/LB1 |
Departure
| Time | 2026-04-24 23:04 |
|---|---|
| Airport | OKC Will Rogers World Airport (KOKC) |
Arrival
| Time | 2026-04-25 00:28 |
|---|---|
| Airport | Albuquerque International Sunport (KABQ) |
| Time | Latitude | Longitude | Altitude | Speed | Heading |
|---|---|---|---|---|---|
| 2026-04-24 22:53 | 35.39518 | -97.59383 | 1293 ft | 0 kts | 270° |
| 2026-04-24 22:57 | 35.39518 | -97.59382 | 1293 ft | 0 kts | 271° |
| 2026-04-24 22:57 | 35.39521 | -97.59372 | 1293 ft | 2 kts | 238° |
| 2026-04-24 22:58 | 35.39526 | -97.59358 | 1293 ft | 0 kts | 257° |
| 2026-04-24 22:58 | 35.39526 | -97.59350 | 1293 ft | 0 kts | 307° |
| 2026-04-24 22:58 | 35.39522 | -97.59345 | 1293 ft | 0 kts | 353° |
| 2026-04-24 22:58 | 35.39517 | -97.59346 | 1293 ft | 1 kts | 3° |
| 2026-04-24 22:59 | 35.39514 | -97.59346 | 1293 ft | 0 kts | 0° |
| 2026-04-24 23:00 | 35.39527 | -97.59339 | 1293 ft | 6 kts | 30° |
| 2026-04-24 23:00 | 35.39540 | -97.59270 | 1293 ft | 13 kts | 115° |
| 2026-04-24 23:00 | 35.39490 | -97.59133 | 1292 ft | 21 kts | 113° |
| 2026-04-24 23:01 | 35.39346 | -97.59061 | 1291 ft | 26 kts | 179° |
| 2026-04-24 23:01 | 35.39158 | -97.59061 | 1292 ft | 28 kts | 179° |
| 2026-04-24 23:01 | 35.38953 | -97.59061 | 1291 ft | 30 kts | 180° |
| 2026-04-24 23:01 | 35.38733 | -97.59061 | 1289 ft | 33 kts | 180° |
| 2026-04-24 23:02 | 35.38498 | -97.59061 | 1288 ft | 34 kts | 179° |
| 2026-04-24 23:02 | 35.38250 | -97.59060 | 1284 ft | 36 kts | 180° |
| 2026-04-24 23:02 | 35.38058 | -97.59060 | 1281 ft | 26 kts | 179° |
| 2026-04-24 23:02 | 35.37883 | -97.59058 | 1279 ft | 21 kts | 162° |
| 2026-04-24 23:03 | 35.37841 | -97.58932 | 1280 ft | 17 kts | 68° |
| 2026-04-24 23:03 | 35.37967 | -97.58892 | 1283 ft | 35 kts | 0° |
| 2026-04-24 23:03 | 35.38528 | -97.58893 | 1292 ft | 121 kts | 0° |
| 2026-04-24 23:03 | 35.39578 | -97.58900 | 1490 ft | 173 kts | 0° |
| 2026-04-24 23:04 | 35.40777 | -97.59008 | 2504 ft | 174 kts | 355° |
| 2026-04-24 23:04 | 35.41856 | -97.59634 | 3330 ft | 187 kts | 316° |
| 2026-04-24 23:04 | 35.42391 | -97.61131 | 3959 ft | 206 kts | 278° |
| 2026-04-24 23:04 | 35.42258 | -97.62919 | 4623 ft | 219 kts | 261° |
| 2026-04-24 23:05 | 35.41976 | -97.64773 | 5258 ft | 232 kts | 261° |
| 2026-04-24 23:05 | 35.41731 | -97.66794 | 5867 ft | 248 kts | 262° |
| 2026-04-24 23:05 | 35.41511 | -97.68943 | 6525 ft | 265 kts | 262° |
| 2026-04-24 23:05 | 35.41288 | -97.71203 | 7442 ft | 272 kts | 262° |
| 2026-04-24 23:06 | 35.41054 | -97.73523 | 8309 ft | 280 kts | 262° |
| 2026-04-24 23:06 | 35.40818 | -97.75858 | 9213 ft | 285 kts | 261° |
| 2026-04-24 23:06 | 35.40574 | -97.78284 | 10176 ft | 289 kts | 261° |
| 2026-04-24 23:06 | 35.40328 | -97.80736 | 10868 ft | 301 kts | 262° |
| 2026-04-24 23:07 | 35.40064 | -97.83350 | 11520 ft | 315 kts | 262° |
| 2026-04-24 23:07 | 35.39791 | -97.86056 | 12113 ft | 331 kts | 263° |
| 2026-04-24 23:07 | 35.39507 | -97.88878 | 12835 ft | 341 kts | 263° |
| 2026-04-24 23:07 | 35.39220 | -97.91729 | 13806 ft | 342 kts | 263° |
| 2026-04-24 23:08 | 35.38928 | -97.94613 | 14772 ft | 343 kts | 263° |
| 2026-04-24 23:08 | 35.38636 | -97.97478 | 15732 ft | 344 kts | 263° |
| 2026-04-24 23:08 | 35.38341 | -98.00381 | 16587 ft | 346 kts | 263° |
| 2026-04-24 23:08 | 35.38047 | -98.03275 | 17510 ft | 346 kts | 263° |
| 2026-04-24 23:09 | 35.37749 | -98.06203 | 18362 ft | 348 kts | 263° |
| 2026-04-24 23:09 | 35.37450 | -98.09145 | 19143 ft | 351 kts | 264° |
| 2026-04-24 23:09 | 35.37155 | -98.12107 | 19908 ft | 354 kts | 264° |
| 2026-04-24 23:09 | 35.36975 | -98.15103 | 20652 ft | 357 kts | 268° |
| 2026-04-24 23:10 | 35.36957 | -98.18159 | 21428 ft | 359 kts | 271° |
| 2026-04-24 23:10 | 35.37015 | -98.21198 | 22093 ft | 363 kts | 272° |
| 2026-04-24 23:10 | 35.37100 | -98.24297 | 22836 ft | 365 kts | 272° |
| 2026-04-24 23:10 | 35.37185 | -98.27377 | 23515 ft | 368 kts | 272° |
| 2026-04-24 23:11 | 35.37266 | -98.30531 | 24148 ft | 373 kts | 272° |
| 2026-04-24 23:11 | 35.37340 | -98.33711 | 24839 ft | 375 kts | 272° |
| 2026-04-24 23:11 | 35.37409 | -98.36924 | 25443 ft | 379 kts | 272° |
| 2026-04-24 23:11 | 35.37472 | -98.40108 | 26064 ft | 381 kts | 272° |
| 2026-04-24 23:12 | 35.37532 | -98.43337 | 26804 ft | 381 kts | 272° |
| 2026-04-24 23:12 | 35.37587 | -98.46557 | 27765 ft | 374 kts | 272° |
| 2026-04-24 23:12 | 35.37638 | -98.49699 | 28602 ft | 370 kts | 272° |
| 2026-04-24 23:12 | 35.37688 | -98.52819 | 29327 ft | 367 kts | 272° |
| 2026-04-24 23:13 | 35.37736 | -98.55918 | 29781 ft | 369 kts | 272° |
| 2026-04-24 23:13 | 35.37832 | -98.62162 | 29816 ft | 365 kts | 272° |
| 2026-04-24 23:14 | 35.37924 | -98.68366 | 29819 ft | 365 kts | 271° |
| 2026-04-24 23:14 | 35.38014 | -98.74586 | 29822 ft | 363 kts | 271° |
| 2026-04-24 23:15 | 35.38098 | -98.80758 | 29816 ft | 364 kts | 271° |
| 2026-04-24 23:15 | 35.38179 | -98.86909 | 29823 ft | 363 kts | 272° |
| 2026-04-24 23:16 | 35.38259 | -98.93077 | 29825 ft | 362 kts | 272° |
| 2026-04-24 23:16 | 35.38335 | -98.99244 | 29832 ft | 363 kts | 272° |
| 2026-04-24 23:17 | 35.38407 | -99.05383 | 29833 ft | 362 kts | 271° |
| 2026-04-24 23:17 | 35.38477 | -99.11579 | 29831 ft | 363 kts | 272° |
| 2026-04-24 23:18 | 35.38541 | -99.17699 | 29836 ft | 362 kts | 272° |
| 2026-04-24 23:18 | 35.38464 | -99.23878 | 29836 ft | 361 kts | 270° |
| 2026-04-24 23:19 | 35.38287 | -99.30043 | 29836 ft | 360 kts | 270° |
| 2026-04-24 23:19 | 35.38122 | -99.36156 | 29829 ft | 360 kts | 270° |
| 2026-04-24 23:20 | 35.37968 | -99.42248 | 29828 ft | 358 kts | 270° |
| 2026-04-24 23:20 | 35.37818 | -99.48343 | 29830 ft | 358 kts | 270° |
| 2026-04-24 23:21 | 35.37666 | -99.54445 | 29832 ft | 358 kts | 270° |
| 2026-04-24 23:21 | 35.37511 | -99.60551 | 29828 ft | 359 kts | 270° |
| 2026-04-24 23:22 | 35.37352 | -99.66593 | 29834 ft | 358 kts | 270° |
| 2026-04-24 23:22 | 35.37187 | -99.72725 | 29834 ft | 358 kts | 270° |
| 2026-04-24 23:23 | 35.37020 | -99.78782 | 29834 ft | 356 kts | 270° |
| 2026-04-24 23:23 | 35.36904 | -99.82904 | 29839 ft | 356 kts | 270° |
| 2026-04-24 23:24 | 35.36735 | -99.88908 | 29837 ft | 353 kts | 270° |
| 2026-04-24 23:24 | 35.36562 | -99.94913 | 29835 ft | 354 kts | 270° |
| 2026-04-24 23:25 | 35.36386 | -100.00909 | 29836 ft | 352 kts | 270° |
| 2026-04-24 23:25 | 35.36209 | -100.06879 | 29841 ft | 354 kts | 270° |
| 2026-04-24 23:26 | 35.36029 | -100.12883 | 29842 ft | 352 kts | 270° |
| 2026-04-24 23:26 | 35.35847 | -100.18877 | 29843 ft | 353 kts | 270° |
| 2026-04-24 23:27 | 35.35662 | -100.24876 | 29845 ft | 353 kts | 270° |
| 2026-04-24 23:27 | 35.35474 | -100.30867 | 29848 ft | 351 kts | 270° |
| 2026-04-24 23:28 | 35.35286 | -100.36827 | 29850 ft | 353 kts | 270° |
| 2026-04-24 23:28 | 35.35090 | -100.42827 | 29856 ft | 352 kts | 270° |
| 2026-04-24 23:29 | 35.34893 | -100.48787 | 29860 ft | 351 kts | 270° |
| 2026-04-24 23:29 | 35.34695 | -100.54750 | 29866 ft | 353 kts | 270° |
| 2026-04-24 23:30 | 35.34492 | -100.60735 | 29868 ft | 350 kts | 270° |
| 2026-04-24 23:30 | 35.34287 | -100.66661 | 29871 ft | 350 kts | 270° |
| 2026-04-24 23:31 | 35.34081 | -100.72598 | 29874 ft | 350 kts | 270° |
| 2026-04-24 23:31 | 35.33872 | -100.78542 | 29886 ft | 350 kts | 270° |
| 2026-04-24 23:32 | 35.33659 | -100.84499 | 29887 ft | 350 kts | 270° |
| 2026-04-24 23:32 | 35.33443 | -100.90429 | 29890 ft | 349 kts | 270° |
| 2026-04-24 23:33 | 35.33222 | -100.96325 | 29883 ft | 348 kts | 270° |
| 2026-04-24 23:33 | 35.32994 | -101.02280 | 29886 ft | 349 kts | 270° |
| 2026-04-24 23:34 | 35.32769 | -101.08175 | 29891 ft | 350 kts | 270° |
| 2026-04-24 23:34 | 35.32540 | -101.14104 | 29891 ft | 350 kts | 270° |
| 2026-04-24 23:35 | 35.32309 | -101.20034 | 29887 ft | 349 kts | 270° |
| 2026-04-24 23:35 | 35.32076 | -101.25965 | 29885 ft | 348 kts | 269° |
| 2026-04-24 23:36 | 35.31841 | -101.31855 | 29885 ft | 347 kts | 270° |
| 2026-04-24 23:36 | 35.31603 | -101.37764 | 29888 ft | 348 kts | 270° |
| 2026-04-24 23:37 | 35.31361 | -101.43670 | 29883 ft | 349 kts | 270° |
| 2026-04-24 23:37 | 35.30993 | -101.52531 | 29882 ft | 349 kts | 270° |
| 2026-04-24 23:38 | 35.30746 | -101.58418 | 29882 ft | 348 kts | 270° |
| 2026-04-24 23:38 | 35.30494 | -101.64326 | 29884 ft | 347 kts | 269° |
| 2026-04-24 23:39 | 35.30239 | -101.70214 | 29882 ft | 347 kts | 269° |
| 2026-04-24 23:39 | 35.29984 | -101.76092 | 29888 ft | 347 kts | 269° |
| 2026-04-24 23:40 | 35.29725 | -101.82000 | 29894 ft | 347 kts | 269° |
| 2026-04-24 23:40 | 35.29464 | -101.87849 | 29895 ft | 346 kts | 269° |
| 2026-04-24 23:41 | 35.29200 | -101.93723 | 29900 ft | 346 kts | 269° |
| 2026-04-24 23:41 | 35.28934 | -101.99577 | 29909 ft | 347 kts | 269° |
| 2026-04-24 23:42 | 35.28663 | -102.05472 | 29900 ft | 347 kts | 269° |
| 2026-04-24 23:42 | 35.28390 | -102.11355 | 29917 ft | 346 kts | 269° |
| 2026-04-24 23:43 | 35.28114 | -102.17225 | 29914 ft | 346 kts | 269° |
| 2026-04-24 23:43 | 35.27837 | -102.23089 | 29912 ft | 346 kts | 269° |
| 2026-04-24 23:44 | 35.27555 | -102.28942 | 29914 ft | 345 kts | 269° |
| 2026-04-24 23:44 | 35.27272 | -102.34779 | 29916 ft | 346 kts | 269° |
| 2026-04-24 23:45 | 35.26984 | -102.40661 | 29909 ft | 346 kts | 269° |
| 2026-04-24 23:45 | 35.26694 | -102.46531 | 29908 ft | 346 kts | 269° |
| 2026-04-24 23:46 | 35.26403 | -102.52348 | 29911 ft | 346 kts | 269° |
| 2026-04-24 23:46 | 35.26110 | -102.58203 | 29916 ft | 345 kts | 269° |
| 2026-04-24 23:47 | 35.25812 | -102.64058 | 29911 ft | 346 kts | 269° |
| 2026-04-24 23:47 | 35.25511 | -102.69930 | 29916 ft | 346 kts | 268° |
| 2026-04-24 23:48 | 35.25209 | -102.75774 | 29916 ft | 346 kts | 268° |
| 2026-04-24 23:48 | 35.24902 | -102.81638 | 29911 ft | 347 kts | 269° |
| 2026-04-24 23:49 | 35.24593 | -102.87494 | 29911 ft | 346 kts | 269° |
| 2026-04-24 23:49 | 35.24283 | -102.93310 | 29906 ft | 345 kts | 268° |
| 2026-04-24 23:50 | 35.23967 | -102.99183 | 29901 ft | 346 kts | 268° |
| 2026-04-24 23:50 | 35.23651 | -103.04997 | 29903 ft | 344 kts | 269° |
| 2026-04-24 23:51 | 35.23333 | -103.10815 | 29909 ft | 342 kts | 269° |
| 2026-04-24 23:51 | 35.23013 | -103.16624 | 29924 ft | 343 kts | 268° |
| 2026-04-24 23:52 | 35.22691 | -103.22411 | 29927 ft | 342 kts | 268° |
| 2026-04-24 23:52 | 35.22364 | -103.28229 | 29926 ft | 343 kts | 269° |
| 2026-04-24 23:53 | 35.22037 | -103.34014 | 29924 ft | 343 kts | 268° |
| 2026-04-24 23:53 | 35.21706 | -103.39850 | 29912 ft | 344 kts | 268° |
| 2026-04-24 23:54 | 35.21370 | -103.45632 | 29898 ft | 344 kts | 268° |
| 2026-04-24 23:54 | 35.21032 | -103.51464 | 29890 ft | 345 kts | 268° |
| 2026-04-24 23:55 | 35.20691 | -103.57282 | 29881 ft | 345 kts | 268° |
| 2026-04-24 23:55 | 35.20349 | -103.63078 | 29883 ft | 345 kts | 268° |
| 2026-04-24 23:56 | 35.20001 | -103.68928 | 29881 ft | 344 kts | 268° |
| 2026-04-24 23:56 | 35.19649 | -103.74755 | 29894 ft | 345 kts | 268° |
| 2026-04-24 23:57 | 35.19295 | -103.80605 | 29907 ft | 343 kts | 268° |
| 2026-04-24 23:57 | 35.18941 | -103.86405 | 29920 ft | 344 kts | 268° |
| 2026-04-24 23:58 | 35.18584 | -103.92236 | 29933 ft | 345 kts | 267° |
| 2026-04-24 23:58 | 35.18223 | -103.98072 | 29934 ft | 345 kts | 268° |
| 2026-04-24 23:59 | 35.17861 | -104.03871 | 29945 ft | 343 kts | 267° |
| 2026-04-24 23:59 | 35.17496 | -104.09673 | 29943 ft | 345 kts | 267° |
| 2026-04-25 00:00 | 35.17126 | -104.15511 | 29943 ft | 344 kts | 267° |
| 2026-04-25 00:00 | 35.16754 | -104.21309 | 29944 ft | 342 kts | 268° |
| 2026-04-25 00:01 | 35.16383 | -104.27078 | 29954 ft | 342 kts | 268° |
| 2026-04-25 00:01 | 35.16007 | -104.32884 | 29966 ft | 342 kts | 268° |
| 2026-04-25 00:02 | 35.15630 | -104.38633 | 29971 ft | 343 kts | 267° |
| 2026-04-25 00:02 | 35.15251 | -104.44410 | 29973 ft | 343 kts | 267° |
| 2026-04-25 00:03 | 35.14868 | -104.50187 | 29969 ft | 342 kts | 267° |
| 2026-04-25 00:03 | 35.14481 | -104.55983 | 29966 ft | 343 kts | 267° |
| 2026-04-25 00:04 | 35.14090 | -104.61788 | 29966 ft | 342 kts | 267° |
| 2026-04-25 00:04 | 35.13700 | -104.67542 | 29979 ft | 343 kts | 267° |
| 2026-04-25 00:05 | 35.13305 | -104.73332 | 29967 ft | 342 kts | 266° |
| 2026-04-25 00:05 | 35.12908 | -104.79107 | 29987 ft | 343 kts | 266° |
| 2026-04-25 00:06 | 35.12507 | -104.84886 | 29990 ft | 343 kts | 266° |
| 2026-04-25 00:06 | 35.12106 | -104.90659 | 29989 ft | 342 kts | 266° |
| 2026-04-25 00:07 | 35.11701 | -104.96429 | 29999 ft | 342 kts | 266° |
| 2026-04-25 00:07 | 35.11296 | -105.02171 | 29595 ft | 334 kts | 266° |
| 2026-04-25 00:08 | 35.11099 | -105.04917 | 29301 ft | 326 kts | 265° |
| 2026-04-25 00:08 | 35.10749 | -105.07646 | 28909 ft | 322 kts | 262° |
| 2026-04-25 00:08 | 35.10314 | -105.10279 | 28507 ft | 318 kts | 261° |
| 2026-04-25 00:08 | 35.09858 | -105.12896 | 28108 ft | 313 kts | 261° |
| 2026-04-25 00:09 | 35.09417 | -105.15479 | 27712 ft | 309 kts | 261° |
| 2026-04-25 00:09 | 35.08984 | -105.18089 | 27322 ft | 323 kts | 262° |
| 2026-04-25 00:09 | 35.08547 | -105.20813 | 26882 ft | 333 kts | 261° |
| 2026-04-25 00:09 | 35.08107 | -105.23573 | 26438 ft | 330 kts | 261° |
| 2026-04-25 00:10 | 35.07675 | -105.26296 | 26018 ft | 325 kts | 261° |
| 2026-04-25 00:10 | 35.07254 | -105.28951 | 25600 ft | 321 kts | 262° |
| 2026-04-25 00:10 | 35.06833 | -105.31609 | 25187 ft | 316 kts | 261° |
| 2026-04-25 00:10 | 35.06418 | -105.34226 | 24788 ft | 311 kts | 262° |
| 2026-04-25 00:11 | 35.06012 | -105.36787 | 24374 ft | 307 kts | 262° |
| 2026-04-25 00:11 | 35.05744 | -105.38474 | 24106 ft | 304 kts | 261° |
| 2026-04-25 00:11 | 35.05215 | -105.41808 | 23580 ft | 300 kts | 261° |
| 2026-04-25 00:11 | 35.04810 | -105.44362 | 23184 ft | 316 kts | 261° |
| 2026-04-25 00:12 | 35.04391 | -105.47015 | 22750 ft | 320 kts | 261° |
| 2026-04-25 00:12 | 35.03975 | -105.49631 | 22336 ft | 316 kts | 261° |
| 2026-04-25 00:12 | 35.03558 | -105.52238 | 21921 ft | 311 kts | 261° |
| 2026-04-25 00:12 | 35.03145 | -105.54806 | 21517 ft | 306 kts | 261° |
| 2026-04-25 00:13 | 35.02739 | -105.57336 | 21112 ft | 302 kts | 261° |
| 2026-04-25 00:13 | 35.02345 | -105.59807 | 20720 ft | 297 kts | 260° |
| 2026-04-25 00:13 | 35.01952 | -105.62270 | 20325 ft | 293 kts | 260° |
| 2026-04-25 00:13 | 35.01563 | -105.64704 | 19934 ft | 290 kts | 259° |
| 2026-04-25 00:14 | 35.01181 | -105.67093 | 19554 ft | 286 kts | 259° |
| 2026-04-25 00:14 | 35.00807 | -105.69430 | 19182 ft | 285 kts | 259° |
| 2026-04-25 00:14 | 35.00413 | -105.71878 | 18801 ft | 301 kts | 259° |
| 2026-04-25 00:14 | 35.00009 | -105.74376 | 18392 ft | 302 kts | 258° |
| 2026-04-25 00:15 | 34.99606 | -105.76863 | 17998 ft | 298 kts | 258° |
| 2026-04-25 00:15 | 34.99215 | -105.79300 | 17708 ft | 291 kts | 258° |
| 2026-04-25 00:15 | 34.98825 | -105.81714 | 17335 ft | 287 kts | 258° |
| 2026-04-25 00:15 | 34.98439 | -105.84088 | 16952 ft | 284 kts | 258° |
| 2026-04-25 00:16 | 34.98055 | -105.86441 | 16572 ft | 281 kts | 258° |
| 2026-04-25 00:16 | 34.97679 | -105.88741 | 16194 ft | 279 kts | 258° |
| 2026-04-25 00:16 | 34.97390 | -105.90514 | 15907 ft | 279 kts | 258° |
| 2026-04-25 00:16 | 34.96994 | -105.92925 | 15510 ft | 294 kts | 258° |
| 2026-04-25 00:17 | 34.96595 | -105.95353 | 15107 ft | 297 kts | 258° |
| 2026-04-25 00:17 | 34.96189 | -105.97819 | 14704 ft | 294 kts | 258° |
| 2026-04-25 00:17 | 34.95816 | -106.00235 | 14310 ft | 292 kts | 261° |
| 2026-04-25 00:17 | 34.95608 | -106.02686 | 14046 ft | 290 kts | 266° |
| 2026-04-25 00:18 | 34.95583 | -106.05135 | 13651 ft | 289 kts | 270° |
| 2026-04-25 00:18 | 34.95638 | -106.07600 | 13250 ft | 288 kts | 271° |
| 2026-04-25 00:18 | 34.95701 | -106.10004 | 12864 ft | 287 kts | 271° |
| 2026-04-25 00:18 | 34.95752 | -106.12419 | 12471 ft | 285 kts | 270° |
| 2026-04-25 00:19 | 34.95790 | -106.14836 | 12075 ft | 284 kts | 270° |
| 2026-04-25 00:19 | 34.95820 | -106.17211 | 11685 ft | 282 kts | 270° |
| 2026-04-25 00:19 | 34.95845 | -106.19606 | 11315 ft | 280 kts | 270° |
| 2026-04-25 00:19 | 34.95832 | -106.21940 | 11168 ft | 272 kts | 268° |
| 2026-04-25 00:20 | 34.95820 | -106.22250 | 11158 ft | 270 kts | 267° |
| 2026-04-25 00:20 | 34.95753 | -106.23470 | 11005 ft | 268 kts | 265° |
| 2026-04-25 00:20 | 34.95652 | -106.24693 | 10834 ft | 266 kts | 264° |
| 2026-04-25 00:21 | 34.95593 | -106.25301 | 10775 ft | 260 kts | 264° |
| 2026-04-25 00:21 | 34.95370 | -106.27411 | 10668 ft | 241 kts | 263° |
| 2026-04-25 00:21 | 34.95166 | -106.29363 | 10609 ft | 226 kts | 264° |
| 2026-04-25 00:21 | 34.94989 | -106.31189 | 10549 ft | 207 kts | 264° |
| 2026-04-25 00:22 | 34.94833 | -106.32850 | 10454 ft | 190 kts | 264° |
| 2026-04-25 00:22 | 34.94691 | -106.34375 | 10376 ft | 174 kts | 264° |
| 2026-04-25 00:22 | 34.94558 | -106.35793 | 10307 ft | 159 kts | 264° |
| 2026-04-25 00:22 | 34.94434 | -106.37093 | 10249 ft | 154 kts | 264° |
| 2026-04-25 00:23 | 34.94323 | -106.38390 | 10196 ft | 156 kts | 267° |
| 2026-04-25 00:23 | 34.94488 | -106.39688 | 10110 ft | 156 kts | 292° |
| 2026-04-25 00:23 | 34.95084 | -106.40703 | 9981 ft | 141 kts | 302° |
| 2026-04-25 00:23 | 34.95652 | -106.41692 | 9478 ft | 145 kts | 297° |
| 2026-04-25 00:24 | 34.96190 | -106.42739 | 8985 ft | 151 kts | 297° |
| 2026-04-25 00:24 | 34.96755 | -106.43799 | 8626 ft | 147 kts | 299° |
| 2026-04-25 00:24 | 34.97316 | -106.44848 | 8360 ft | 148 kts | 297° |
| 2026-04-25 00:24 | 34.97847 | -106.45924 | 8095 ft | 148 kts | 296° |
| 2026-04-25 00:25 | 34.98339 | -106.47018 | 7871 ft | 144 kts | 294° |
| 2026-04-25 00:25 | 34.98836 | -106.48087 | 7558 ft | 151 kts | 298° |
| 2026-04-25 00:25 | 34.99483 | -106.49109 | 7339 ft | 152 kts | 313° |
| 2026-04-25 00:25 | 35.00387 | -106.49845 | 6984 ft | 163 kts | 327° |
| 2026-04-25 00:26 | 35.01432 | -106.50407 | 6777 ft | 161 kts | 327° |
| 2026-04-25 00:26 | 35.02294 | -106.51195 | 6553 ft | 153 kts | 312° |
| 2026-04-25 00:26 | 35.03075 | -106.52055 | 6311 ft | 151 kts | 310° |
| 2026-04-25 00:26 | 35.03784 | -106.52976 | 6060 ft | 146 kts | 302° |
| 2026-04-25 00:27 | 35.04276 | -106.54008 | 5872 ft | 139 kts | 288° |
| 2026-04-25 00:27 | 35.04460 | -106.55103 | 5704 ft | 129 kts | 268° |
| 2026-04-25 00:27 | 35.04422 | -106.56207 | 5519 ft | 130 kts | 267° |
| 2026-04-25 00:27 | 35.04404 | -106.57282 | 5417 ft | 127 kts | 269° |
| 2026-04-25 00:28 | 35.04407 | -106.58307 | 5364 ft | 101 kts | 270° |
| 2026-04-25 00:28 | 35.04415 | -106.58902 | 5357 ft | 60 kts | 271° |
| 2026-04-25 00:28 | 35.04417 | -106.59425 | 5350 ft | 54 kts | 270° |
| 2026-04-25 00:28 | 35.04445 | -106.59703 | 5349 ft | 27 kts | 287° |
| 2026-04-25 00:29 | 35.04519 | -106.59884 | 5349 ft | 20 kts | 300° |
| 2026-04-25 00:29 | 35.04573 | -106.60057 | 5346 ft | 24 kts | 274° |
| 2026-04-25 00:29 | 35.04575 | -106.60255 | 5346 ft | 22 kts | 271° |
| 2026-04-25 00:29 | 35.04576 | -106.60446 | 5345 ft | 22 kts | 271° |
| 2026-04-25 00:30 | 35.04577 | -106.60640 | 5344 ft | 25 kts | 271° |
| 2026-04-25 00:30 | 35.04578 | -106.60888 | 5342 ft | 31 kts | 271° |
| 2026-04-25 00:30 | 35.04580 | -106.61115 | 5341 ft | 17 kts | 271° |
| 2026-04-25 00:30 | 35.04581 | -106.61195 | 5341 ft | 0 kts | 271° |
| 2026-04-25 00:31 | 35.04581 | -106.61198 | 5341 ft | 2 kts | 270° |
| 2026-04-25 00:31 | 35.04579 | -106.61277 | 5340 ft | 12 kts | 269° |
| 2026-04-25 00:31 | 35.04554 | -106.61401 | 5338 ft | 16 kts | 265° |
| 2026-04-25 00:32 | 35.04555 | -106.61539 | 5337 ft | 16 kts | 271° |
| 2026-04-25 00:32 | 35.04556 | -106.61667 | 5337 ft | 11 kts | 269° |
| 2026-04-25 00:32 | 35.04555 | -106.61714 | 5336 ft | 6 kts | 272° |
| 2026-04-25 00:32 | 35.04562 | -106.61752 | 5335 ft | 7 kts | 291° |
| 2026-04-25 00:33 | 35.04588 | -106.61820 | 5334 ft | 4 kts | 315° |
| 2026-04-25 00:33 | 35.04618 | -106.61831 | 5334 ft | 4 kts | 12° |
| 2026-04-25 00:33 | 35.04642 | -106.61816 | 5334 ft | 4 kts | 25° |
| 2026-04-25 00:33 | 35.04668 | -106.61803 | 5335 ft | 3 kts | 21° |
| 2026-04-25 00:34 | 35.04689 | -106.61793 | 5335 ft | 1 kts | 21° |
| 2026-04-25 00:34 | 35.04690 | -106.61793 | 5335 ft | 0 kts | 21° |